Time;durP1;ratioP1;P1;durP2;ratioP2;P2;SDS_P1;SDS_P2;PMS_P1;PMS_P2;Temp;Humidity;BMP_temperature;BMP_pressure;BME280_temperature;BME280_humidity;BME280_pressure;Samples;Min_cycle;Max_cycle;Signal;HPM_P1;HPM_P2
2020/12/09 00:00:30;;;;;;;44.43;20.30;;;;;;;-0.45;89.46;98017.50;5057840;28;20070;-79
2020/12/09 00:02:57;;;;;;;51.50;21.77;;;;;;;-0.43;89.74;98020.88;5057394;28;20562;-79
2020/12/09 00:05:23;;;;;;;50.67;20.87;;;;;;;-0.43;89.62;98025.38;5058939;28;20052;-80
2020/12/09 00:07:49;;;;;;;58.67;22.03;;;;;;;-0.55;89.55;97998.81;5058978;28;20048;-79
2020/12/09 00:10:16;;;;;;;46.20;21.03;;;;;;;-0.51;89.64;98011.88;5058451;28;20057;-79
2020/12/09 00:12:43;;;;;;;51.17;20.37;;;;;;;-0.48;89.98;98024.94;5058140;28;20556;-79
2020/12/09 00:15:10;;;;;;;48.27;21.40;;;;;;;-0.50;90.00;98024.25;5056161;28;20040;-79
2020/12/09 00:17:36;;;;;;;46.30;20.90;;;;;;;-0.64;90.30;98013.03;5057500;28;20106;-79
2020/12/09 00:20:04;;;;;;;47.63;20.07;;;;;;;-0.56;90.55;98026.53;5055094;28;20045;-78
2020/12/09 00:22:30;;;;;;;52.00;21.40;;;;;;;-0.74;90.55;98005.03;5056753;28;20487;-79
2020/12/09 00:24:56;;;;;;;50.43;22.40;;;;;;;-0.76;90.98;98025.66;5056907;28;20053;-79
2020/12/09 00:27:23;;;;;;;44.97;20.53;;;;;;;-0.68;90.80;98026.78;5058109;28;20122;-79
2020/12/09 00:29:50;;;;;;;47.27;21.33;;;;;;;-0.64;90.75;98033.53;5057018;28;20165;-79
2020/12/09 00:32:17;;;;;;;49.77;20.83;;;;;;;-0.82;91.27;97999.56;5055557;28;20829;-79
2020/12/09 00:34:43;;;;;;;49.73;20.43;;;;;;;-0.79;91.15;98007.28;5057365;28;20044;-79
2020/12/09 00:37:09;;;;;;;48.60;20.53;;;;;;;-0.75;91.70;98011.34;5057330;28;20064;-79
2020/12/09 00:39:35;;;;;;;46.73;21.77;;;;;;;-0.70;91.36;98004.75;5060230;28;20048;-79
2020/12/09 00:42:02;;;;;;;50.90;21.90;;;;;;;-0.57;90.68;98016.81;5061488;28;20085;-79
2020/12/09 00:44:28;;;;;;;40.37;20.00;;;;;;;-0.65;90.74;98016.66;5059871;28;20098;-79
2020/12/09 00:46:55;;;;;;;42.20;20.27;;;;;;;-0.54;90.96;98021.88;5062125;28;20052;-80
2020/12/09 00:49:21;;;;;;;45.23;20.50;;;;;;;-0.58;91.30;98023.13;5059281;28;20138;-80
2020/12/09 00:51:48;;;;;;;48.67;19.23;;;;;;;-0.69;91.37;98011.75;5061344;28;20072;-79
2020/12/09 00:54:14;;;;;;;44.20;19.17;;;;;;;-0.84;91.33;97998.88;5062306;28;20107;-79
2020/12/09 00:56:43;;;;;;;45.80;18.57;;;;;;;-0.87;92.00;98004.47;5060770;28;20053;-79
2020/12/09 00:59:13;;;;;;;40.73;17.40;;;;;;;-0.78;91.85;98026.81;5059845;28;20102;-79
2020/12/09 01:01:39;;;;;;;;;;;;;;;-0.72;91.78;98032.41;5060864;28;20048;-80
2020/12/09 01:04:07;;;;;;;42.87;18.87;;;;;;;-0.62;92.04;98037.75;5060593;28;19928;-80
2020/12/09 01:06:34;;;;;;;44.17;20.07;;;;;;;-0.55;91.75;98032.69;5059471;28;20103;-80
2020/12/09 01:09:03;;;;;;;41.43;18.83;;;;;;;-0.54;91.24;98040.56;5061203;28;20144;-79
2020/12/09 01:11:29;;;;;;;48.67;19.92;;;;;;;-0.70;90.76;98018.09;5060951;28;20392;-80
2020/12/09 01:13:56;;;;;;;44.50;18.07;;;;;;;-0.78;91.66;98016.16;5061245;28;20079;-79
2020/12/09 01:16:22;;;;;;;47.67;21.30;;;;;;;-0.74;91.70;98028.19;5059264;28;20063;-79
2020/12/09 01:18:48;;;;;;;45.17;18.97;;;;;;;-0.77;91.09;98013.34;5060029;28;20063;-79
2020/12/09 01:21:16;;;;;;;42.77;18.70;;;;;;;-0.78;91.45;98019.66;5060888;28;20057;-79
2020/12/09 01:23:42;;;;;;;41.77;18.63;;;;;;;-0.64;92.13;98046.91;5059799;28;20448;-80
2020/12/09 01:26:11;;;;;;;43.50;19.33;;;;;;;-0.73;91.96;98025.38;5060202;28;20049;-80
2020/12/09 01:28:38;;;;;;;43.53;18.52;;;;;;;-0.60;92.04;98048.31;5059670;28;20045;-80
2020/12/09 01:31:04;;;;;;;49.43;19.97;;;;;;;-0.64;92.04;98037.06;5059386;28;20040;-80
2020/12/09 01:33:31;;;;;;;44.43;19.50;;;;;;;-0.71;91.80;98027.91;5060648;28;20052;-80
2020/12/09 01:35:57;;;;;;;43.13;19.27;;;;;;;-0.60;91.83;98050.97;5059735;28;20056;-79
2020/12/09 01:38:24;;;;;;;47.83;21.27;;;;;;;-0.55;91.04;98035.34;5060060;28;20063;-79
2020/12/09 01:54:18;;;;;;;59.50;21.63;;;;;;;-0.62;91.00;98047.59;5058993;28;20043;-79
2020/12/09 01:56:45;;;;;;;49.13;20.73;;;;;;;-0.70;91.71;98044.78;5058795;28;20496;-80
2020/12/09 01:59:11;;;;;;;48.10;21.13;;;;;;;-0.63;91.83;98062.78;5059783;28;20113;-79
2020/12/09 02:01:37;;;;;;;40.97;19.20;;;;;;;-0.56;92.17;98065.69;5060613;28;20455;-79
2020/12/09 02:04:04;;;;;;;43.40;18.50;;;;;;;-0.67;92.05;98055.19;5060096;28;20083;-79
2020/12/09 02:06:30;;;;;;;42.57;18.53;;;;;;;-0.68;92.33;98057.00;5060306;28;20075;-79
2020/12/09 02:08:56;;;;;;;50.67;20.77;;;;;;;-0.60;91.89;98061.66;5059945;28;20044;-79
2020/12/09 02:11:23;;;;;;;45.40;19.63;;;;;;;-0.60;92.05;98057.16;5058865;28;20048;-79
2020/12/09 02:13:49;;;;;;;41.00;18.43;;;;;;;-0.68;91.67;98046.31;5060529;28;20588;-79
2020/12/09 02:16:17;;;;;;;42.50;18.03;;;;;;;-0.52;91.86;98072.44;5059214;28;20110;-79
2020/12/09 02:18:44;;;;;;;43.53;20.10;;;;;;;-0.49;91.46;98052.66;5060804;28;20049;-79
2020/12/09 02:21:11;;;;;;;42.73;18.63;;;;;;;-0.53;91.71;98060.06;5059840;28;20052;-79
2020/12/09 02:23:38;;;;;;;40.70;19.50;;;;;;;-0.41;91.49;98077.63;5059680;28;20041;-80
2020/12/09 02:26:04;;;;;;;41.67;19.30;;;;;;;-0.45;91.83;98078.91;5059794;28;20563;-79
2020/12/09 02:28:30;;;;;;;48.87;20.07;;;;;;;-0.40;91.54;98095.34;5059994;28;20505;-79
2020/12/09 02:30:57;;;;;;;46.10;19.47;;;;;;;-0.57;91.31;98067.53;5058645;28;20386;-79
2020/12/09 02:33:23;;;;;;;50.33;20.33;;;;;;;-0.55;91.77;98070.06;5058554;28;20118;-79
2020/12/09 02:35:49;;;;;;;45.03;18.70;;;;;;;-0.48;91.68;98102.38;5058002;28;20094;-79
2020/12/09 02:38:15;;;;;;;47.60;19.47;;;;;;;-0.46;92.36;98103.94;5056703;28;20056;-80
2020/12/09 02:40:43;;;;;;;42.97;19.60;;;;;;;-0.56;92.25;98103.06;5058164;28;20102;-79
2020/12/09 02:43:11;;;;;;;43.70;19.10;;;;;;;-0.58;91.91;98102.38;5057438;28;20071;-80
2020/12/09 02:45:37;;;;;;;43.67;19.17;;;;;;;-0.49;92.00;98124.75;5058287;28;20045;-79
2020/12/09 02:48:03;;;;;;;43.17;17.37;;;;;;;-0.59;92.21;98106.03;5058022;28;20049;-79
2020/12/09 02:50:29;;;;;;;45.93;19.70;;;;;;;-0.45;91.61;98108.28;5057744;28;20064;-79
2020/12/09 02:52:56;;;;;;;47.27;19.73;;;;;;;-0.31;91.76;98133.72;5058318;28;20113;-80
2020/12/09 02:55:22;;;;;;;42.63;19.20;;;;;;;-0.45;91.21;98115.44;5056844;28;20110;-79
2020/12/09 02:57:49;;;;;;;41.27;18.53;;;;;;;-0.38;91.75;98128.13;5057259;28;20115;-79
2020/12/09 03:00:16;;;;;;;45.03;19.70;;;;;;;-0.46;90.90;98114.59;5057471;28;20472;-79
2020/12/09 03:02:42;;;;;;;49.50;20.83;;;;;;;-0.34;91.65;98125.16;5057614;28;20053;-79
2020/12/09 03:05:09;;;;;;;49.67;21.17;;;;;;;-0.20;90.95;98122.91;5057024;28;20592;-79
2020/12/09 03:07:35;;;;;;;51.70;20.67;;;;;;;-0.33;90.81;98111.66;5057325;28;20056;-79
2020/12/09 03:10:03;;;;;;;50.93;21.57;;;;;;;-0.24;90.51;98118.81;5056510;28;20048;-79
2020/12/09 03:12:29;;;;;;;52.93;20.60;;;;;;;-0.28;90.95;98121.91;5057396;28;20154;-80
2020/12/09 03:14:56;;;;;;;55.80;20.87;;;;;;;-0.48;90.70;98102.38;5056648;28;20049;-79
2020/12/09 03:17:22;;;;;;;53.50;21.40;;;;;;;-0.44;91.39;98106.44;5056381;28;20377;-79
2020/12/09 03:19:49;;;;;;;52.73;21.07;;;;;;;-0.40;91.41;98115.88;5055295;28;20525;-80
2020/12/09 03:22:15;;;;;;;46.13;20.40;;;;;;;-0.64;91.25;98084.25;5057535;28;20060;-79
2020/12/09 03:24:41;;;;;;;50.43;21.57;;;;;;;-0.40;91.99;98135.41;5056469;28;20523;-79
2020/12/09 03:27:07;;;;;;;51.53;20.73;;;;;;;-0.32;91.82;98131.19;5056790;28;20086;-79
2020/12/09 03:29:34;;;;;;;48.97;20.20;;;;;;;-0.40;91.39;98113.22;5057662;28;20052;-79
2020/12/09 03:32:01;;;;;;;55.33;21.27;;;;;;;-0.27;91.08;98128.94;5057103;28;20467;-80
2020/12/09 03:34:27;;;;;;;47.20;19.90;;;;;;;-0.31;91.67;98130.22;5057647;28;20484;-79
2020/12/09 03:36:53;;;;;;;52.60;21.10;;;;;;;-0.25;91.25;98125.13;5056079;28;20149;-80
2020/12/09 03:39:20;;;;;;;50.43;20.33;;;;;;;-0.40;90.85;98110.53;5057486;28;20106;-79
2020/12/09 03:41:46;;;;;;;48.43;20.27;;;;;;;-0.40;91.60;98127.41;5057238;28;20064;-79
2020/12/09 03:44:12;;;;;;;43.93;18.50;;;;;;;-0.37;91.01;98128.94;5057073;28;20060;-79
2020/12/09 03:46:38;;;;;;;52.13;20.30;;;;;;;-0.35;91.53;98137.66;5057463;28;20057;-80
2020/12/09 03:49:06;;;;;;;45.10;19.23;;;;;;;-0.34;91.29;98134.00;5053277;28;20048;-79
2020/12/09 03:51:33;;;;;;;49.10;20.43;;;;;;;-0.48;91.69;98129.94;5056377;28;20049;-79
2020/12/09 03:53:59;;;;;;;53.50;20.87;;;;;;;-0.37;91.96;98145.81;5056499;28;20432;-79
2020/12/09 03:56:25;;;;;;;45.03;20.17;;;;;;;-0.34;91.69;98139.34;5054270;28;20098;-79
2020/12/09 03:58:51;;;;;;;49.73;20.57;;;;;;;-0.38;91.25;98138.81;5056671;28;20051;-79
2020/12/09 04:01:18;;;;;;;50.60;20.40;;;;;;;-0.49;91.66;98120.22;5056088;28;20053;-79
2020/12/09 04:03:45;;;;;;;51.33;21.60;;;;;;;-0.58;91.57;98111.22;5055244;28;20378;-78
2020/12/09 04:06:12;;;;;;;43.53;18.37;;;;;;;-0.40;91.73;98129.22;5056149;28;20127;-78
2020/12/09 04:08:38;;;;;;;51.70;20.90;;;;;;;-0.48;91.65;98105.03;5055585;28;20051;-79
2020/12/09 04:11:05;;;;;;;44.80;19.57;;;;;;;-0.42;91.39;98113.34;5056213;28;20091;-78
2020/12/09 04:13:31;;;;;;;50.90;20.50;;;;;;;-0.42;91.34;98124.03;5055804;28;20126;-78
2020/12/09 04:15:59;;;;;;;51.53;19.93;;;;;;;-0.37;91.59;98132.44;5055711;28;20056;-78
2020/12/09 04:18:25;;;;;;;49.50;20.77;;;;;;;-0.42;92.17;98128.50;5055542;28;20695;-78
2020/12/09 04:20:51;;;;;;;44.60;20.13;;;;;;;-0.49;92.04;98128.25;5056333;28;20071;-78
2020/12/09 04:23:18;;;;;;;43.72;18.95;;;;;;;-0.66;92.37;98110.22;5055576;28;20501;-78
2020/12/09 04:25:45;;;;;;;42.00;18.37;;;;;;;-0.65;92.03;98111.94;5054571;28;20102;-78
2020/12/09 04:28:11;;;;;;;44.57;19.97;;;;;;;-0.50;92.28;98134.56;5055740;28;20057;-78
2020/12/09 04:30:37;;;;;;;52.43;21.20;;;;;;;-0.56;92.46;98122.63;5056692;28;20122;-78
2020/12/09 04:33:03;;;;;;;48.23;19.20;;;;;;;-0.54;92.21;98139.34;5056914;28;20059;-78
2020/12/09 04:35:30;;;;;;;41.20;19.63;;;;;;;-0.52;92.10;98146.38;5055771;28;20053;-78
2020/12/09 04:37:56;;;;;;;43.47;19.20;;;;;;;-0.52;92.26;98141.03;5055746;28;20060;-78
2020/12/09 04:40:25;;;;;;;39.80;18.67;;;;;;;-0.53;92.19;98137.50;5054979;28;20056;-77
2020/12/09 04:42:56;;;;;;;37.77;17.43;;;;;;;-0.55;92.12;98151.00;5055591;28;20055;-78
2020/12/09 04:45:22;;;;;;;39.23;17.63;;;;;;;-0.65;92.15;98141.28;5055757;28;20067;-78
2020/12/09 04:47:59;;;;;;;37.23;19.00;;;;;;;-0.60;92.26;98153.25;5056142;28;20091;-78
2020/12/09 04:50:32;;;;;;;39.73;16.87;;;;;;;-0.52;92.70;98167.75;5055616;28;20052;-78
2020/12/09 04:53:03;;;;;;;39.20;17.13;;;;;;;-0.59;91.97;98154.09;5057121;28;20558;-77
2020/12/09 04:55:33;;;;;;;42.93;17.87;;;;;;;-0.65;92.34;98154.66;5056416;28;20045;-78
2020/12/09 04:58:13;;;;;;;42.03;17.83;;;;;;;-0.52;92.48;98165.91;5055915;28;20086;-78
2020/12/09 05:00:41;;;;;;;35.53;17.10;;;;;;;-0.50;92.29;98163.94;5056336;28;20053;-78
2020/12/09 05:03:18;;;;;;;43.77;18.10;;;;;;;-0.55;92.43;98158.16;5055701;28;20060;-78
2020/12/09 05:05:46;;;;;;;42.43;19.93;;;;;;;-0.63;92.00;98144.66;5057138;28;20171;-77
2020/12/09 05:08:20;;;;;;;45.40;18.73;;;;;;;-0.55;92.17;98155.50;5055797;28;20393;-77
2020/12/09 05:10:49;;;;;;;41.17;17.70;;;;;;;-0.56;91.86;98148.47;5056524;28;20091;-78
2020/12/09 05:13:26;;;;;;;41.00;18.50;;;;;;;-0.52;91.95;98143.72;5054453;28;20053;-78
2020/12/09 05:15:57;;;;;;;37.67;16.87;;;;;;;-0.50;91.78;98177.28;5055229;28;20121;-77
2020/12/09 05:18:44;;;;;;;42.90;17.77;;;;;;;-0.62;92.33;98151.69;5053689;28;20060;-77
2020/12/09 05:21:21;;;;;;;37.93;16.63;;;;;;;-0.52;91.95;98165.91;5050033;28;20041;-77
2020/12/09 05:23:51;;;;;;;47.87;19.30;;;;;;;-0.45;91.74;98185.72;5054713;28;20053;-77
2020/12/09 05:26:27;;;;;;;40.60;18.30;;;;;;;-0.50;92.25;98179.94;5058001;28;20452;-77
2020/12/09 05:29:08;;;;;;;39.47;16.90;;;;;;;-0.46;92.16;98193.88;5058111;28;20099;-77
2020/12/09 05:31:35;;;;;;;39.23;17.50;;;;;;;-0.58;92.48;98187.81;5059941;28;20059;-77
2020/12/09 05:34:01;;;;;;;48.60;20.10;;;;;;;-0.75;92.26;98162.66;5059253;28;20134;-77
2020/12/09 05:36:27;;;;;;;45.33;18.90;;;;;;;-0.75;92.29;98160.81;5058214;28;20476;-77
2020/12/09 05:39:05;;;;;;;43.97;18.67;;;;;;;-0.57;92.47;98193.03;5060165;28;20587;-77
2020/12/09 05:41:34;;;;;;;43.73;19.00;;;;;;;-0.60;92.84;98182.63;5059222;28;20051;-77
2020/12/09 05:44:01;;;;;;;53.50;22.87;;;;;;;-0.54;92.84;98186.56;5059855;28;20040;-77
2020/12/09 05:46:28;;;;;;;67.57;25.77;;;;;;;-0.63;92.32;98171.34;5057365;28;20084;-78
2020/12/09 05:48:54;;;;;;;53.63;22.90;;;;;;;-0.48;92.28;98199.38;5058321;28;20045;-78
2020/12/09 05:51:21;;;;;;;44.07;19.10;;;;;;;-0.41;92.49;98196.97;5061717;28;20040;-78
2020/12/09 05:53:48;;;;;;;45.90;19.93;;;;;;;-0.50;91.76;98187.97;5065272;28;21466;-77
2020/12/09 05:56:16;;;;;;;37.97;17.63;;;;;;;-0.49;92.05;98181.66;5067848;28;20106;-78
2020/12/09 05:58:44;;;;;;;40.47;19.27;;;;;;;-0.45;91.72;98200.88;5058864;28;20044;-78
2020/12/09 06:01:15;;;;;;;51.20;19.97;;;;;;;-0.53;91.99;98196.25;5059254;28;20106;-78
2020/12/09 06:03:43;;;;;;;49.07;19.33;;;;;;;-0.49;92.18;98200.34;5058294;28;20117;-78
2020/12/09 06:06:20;;;;;;;41.53;18.57;;;;;;;-0.58;92.43;98194.00;5059252;28;20044;-78
2020/12/09 06:08:48;;;;;;;37.50;18.20;;;;;;;-0.46;91.86;98194.72;5057771;28;20049;-78
2020/12/09 06:11:17;;;;;;;47.40;20.00;;;;;;;-0.38;91.94;98210.91;5058117;28;20044;-78
2020/12/09 06:13:45;;;;;;;52.63;20.77;;;;;;;-0.58;91.63;98179.81;5057911;28;20097;-78
2020/12/09 06:16:12;;;;;;;42.63;18.03;;;;;;;-0.46;91.77;98212.56;5058058;28;20117;-78
2020/12/09 06:18:42;;;;;;;44.83;18.60;;;;;;;-0.50;91.99;98222.66;5058794;28;20045;-78
2020/12/09 06:21:09;;;;;;;53.53;21.00;;;;;;;-0.65;92.06;98202.69;5056860;28;20065;-78
2020/12/09 06:23:35;;;;;;;50.17;20.73;;;;;;;-0.54;92.36;98199.91;5058948;28;20122;-78
2020/12/09 06:26:06;;;;;;;46.63;20.13;;;;;;;-0.35;92.37;98225.78;5058011;28;20045;-78
2020/12/09 06:28:34;;;;;;;50.97;21.37;;;;;;;-0.32;91.50;98225.50;5058502;28;20154;-78
2020/12/09 06:31:11;;;;;;;47.43;21.40;;;;;;;-0.49;92.13;98210.19;5057656;28;20102;-78
2020/12/09 06:33:39;;;;;;;50.53;20.17;;;;;;;-0.36;91.90;98230.28;5058848;28;20041;-78
2020/12/09 06:36:23;;;;;;;50.97;22.30;;;;;;;-0.40;92.23;98214.69;5057793;28;20060;-78
2020/12/09 06:39:22;;;;;;;55.13;20.47;;;;;;;-0.42;91.51;98221.97;5057737;28;20473;-78
2020/12/09 06:42:09;;;;;;;51.28;19.92;;;;;;;-0.40;92.08;98228.88;4996754;28;20123;-77
2020/12/09 06:44:49;;;;;;;48.57;20.07;;;;;;;-0.40;92.09;98223.53;4995610;28;20403;-79
2020/12/09 06:47:17;;;;;;;50.00;20.63;;;;;;;-0.46;92.27;98209.91;5036921;28;20049;-79
2020/12/09 06:49:47;;;;;;;51.50;20.77;;;;;;;-0.47;91.86;98216.22;5058144;28;20052;-78
2020/12/09 06:52:35;;;;;;;;;;;;;;;-0.40;92.02;98220.03;5058471;28;20052;-79
2020/12/09 06:55:04;;;;;;;43.83;18.77;;;;;;;-0.39;92.10;98230.56;5056919;28;20004;-76
2020/12/09 06:57:34;;;;;;;46.53;21.07;;;;;;;-0.48;92.24;98223.41;5055763;28;20542;-76
2020/12/09 07:00:19;;;;;;;46.07;19.73;;;;;;;-0.45;92.51;98228.47;5058937;28;20056;-76
2020/12/09 07:02:47;;;;;;;51.93;20.67;;;;;;;-0.41;92.18;98248.53;5057756;28;20562;-77
2020/12/09 07:05:15;;;;;;;52.17;19.40;;;;;;;-0.49;92.43;98234.22;5057629;28;20056;-76
2020/12/09 07:07:47;;;;;;;48.80;19.13;;;;;;;-0.47;92.09;98245.59;5057403;28;20040;-76
2020/12/09 07:10:29;;;;;;;62.27;22.53;;;;;;;-0.47;92.64;98245.59;5058140;28;20476;-76
2020/12/09 07:13:10;;;;;;;47.60;18.77;;;;;;;-0.52;92.59;98235.31;5055765;28;20048;-76
2020/12/09 07:15:38;;;;;;;52.87;20.60;;;;;;;-0.56;92.58;98226.75;5056095;28;20048;-76
2020/12/09 07:18:07;;;;;;;54.10;20.63;;;;;;;-0.49;92.04;98247.56;5057048;28;20052;-76
2020/12/09 07:20:34;;;;;;;49.47;19.70;;;;;;;-0.37;92.26;98276.66;5057423;28;20401;-77
2020/12/09 07:23:01;;;;;;;47.57;20.57;;;;;;;-0.36;92.38;98272.19;5057273;28;20147;-77
2020/12/09 07:25:27;;;;;;;61.13;23.83;;;;;;;-0.41;92.25;98269.91;5057139;28;20048;-77
2020/12/09 07:27:54;;;;;;;52.20;21.00;;;;;;;-0.41;92.56;98264.56;5057484;28;20056;-77
2020/12/09 07:30:21;;;;;;;53.77;21.33;;;;;;;-0.46;92.46;98257.97;5055823;28;20048;-77
2020/12/09 07:32:49;;;;;;;50.17;20.13;;;;;;;-0.39;92.54;98273.31;5056927;28;20045;-76
2020/12/09 07:35:18;;;;;;;53.83;20.77;;;;;;;-0.39;92.22;98262.63;5057898;28;20048;-77
2020/12/09 07:37:49;;;;;;;53.30;22.00;;;;;;;-0.16;92.08;98293.59;5055659;28;20115;-76
2020/12/09 07:40:19;;;;;;;45.97;20.27;;;;;;;-0.31;91.23;98274.44;5057806;28;20059;-77
2020/12/09 07:42:57;;;;;;;57.50;22.20;;;;;;;-0.38;91.54;98255.44;5056437;28;20481;-77
2020/12/09 07:45:23;;;;;;;56.97;22.00;;;;;;;-0.25;91.53;98282.75;5057934;28;20057;-77
2020/12/09 07:47:49;;;;;;;59.03;22.33;;;;;;;-0.24;91.51;98287.09;5055282;28;20049;-77
2020/12/09 07:50:17;;;;;;;57.17;22.83;;;;;;;-0.24;91.12;98286.25;5057278;28;20094;-77
2020/12/09 07:52:43;;;;;;;50.67;21.53;;;;;;;-0.24;91.71;98280.91;5057354;28;20048;-77
2020/12/09 07:55:13;;;;;;;60.70;23.30;;;;;;;-0.23;91.75;98282.59;5057615;28;20059;-77
2020/12/09 07:57:40;;;;;;;55.53;23.33;;;;;;;-0.17;91.64;98291.91;5057267;28;20097;-77
2020/12/09 08:00:09;;;;;;;63.80;23.87;;;;;;;-0.24;92.17;98302.28;5055685;28;20500;-77
2020/12/09 08:02:40;;;;;;;56.70;21.93;;;;;;;-0.37;92.13;98260.63;5056955;28;20049;-77
2020/12/09 08:05:18;;;;;;;54.93;21.47;;;;;;;-0.25;91.61;98285.41;5056003;28;20554;-77
2020/12/09 08:07:55;;;;;;;54.17;21.83;;;;;;;-0.24;91.85;98288.91;5056489;28;20505;-77
2020/12/09 08:10:26;;;;;;;56.23;21.37;;;;;;;-0.37;91.93;98273.16;5055580;28;20090;-77
2020/12/09 08:13:08;;;;;;;56.33;22.30;;;;;;;-0.11;92.33;98316.22;5061113;28;20053;-77
2020/12/09 08:15:37;;;;;;;54.43;21.60;;;;;;;-0.34;91.53;98280.91;5051384;28;20508;-77
2020/12/09 08:18:04;;;;;;;59.57;24.33;;;;;;;-0.14;91.28;98311.16;5055610;28;20063;-77
2020/12/09 08:20:31;;;;;;;54.43;22.20;;;;;;;-0.30;91.90;98279.66;5060108;28;20056;-77
2020/12/09 08:23:00;;;;;;;57.83;21.13;;;;;;;-0.25;91.74;98304.09;5044667;28;20058;-77
2020/12/09 08:25:28;;;;;;;55.10;21.57;;;;;;;-0.33;92.28;98290.59;5061552;28;20049;-77
2020/12/09 08:27:55;;;;;;;56.33;21.37;;;;;;;-0.22;91.64;98313.69;5065349;28;20052;-77
2020/12/09 08:30:23;;;;;;;55.17;22.73;;;;;;;-0.20;91.91;98322.41;5063876;28;20101;-77
2020/12/09 08:33:04;;;;;;;51.87;22.00;;;;;;;-0.14;92.09;98339.72;5060840;28;20652;-77
2020/12/09 08:35:43;;;;;;;54.10;21.13;;;;;;;-0.32;92.26;98313.66;5053809;28;20052;-77
2020/12/09 08:38:10;;;;;;;48.30;20.50;;;;;;;-0.13;92.89;98342.25;5068931;28;20048;-77
2020/12/09 08:40:36;;;;;;;52.40;23.33;;;;;;;-0.08;92.25;98331.97;5063432;28;20527;-77
2020/12/09 08:43:03;;;;;;;52.03;20.73;;;;;;;-0.05;91.85;98333.53;5067084;28;20053;-77
2020/12/09 08:45:30;;;;;;;53.50;22.53;;;;;;;-0.10;92.41;98323.25;5056627;28;20071;-77
2020/12/09 08:47:56;;;;;;;60.60;22.23;;;;;;;-0.17;92.22;98327.47;5055699;28;20045;-77
2020/12/09 08:50:22;;;;;;;43.57;20.33;;;;;;;-0.11;92.25;98336.75;5056610;28;20154;-77
2020/12/09 08:52:49;;;;;;;55.17;21.93;;;;;;;-0.12;91.94;98348.41;5056318;28;20525;-77
2020/12/09 08:55:16;;;;;;;48.40;20.70;;;;;;;-0.07;91.58;98354.22;5056487;28;20053;-77
2020/12/09 08:57:42;;;;;;;48.97;20.40;;;;;;;-0.23;91.12;98328.00;5055326;28;20060;-77
2020/12/09 09:00:09;;;;;;;47.03;20.87;;;;;;;-0.09;90.98;98343.66;5060457;28;20041;-77
2020/12/09 09:02:35;;;;;;;50.83;21.27;;;;;;;-0.14;91.49;98345.88;5059850;28;20103;-78
2020/12/09 09:05:02;;;;;;;50.97;20.80;;;;;;;-0.13;91.26;98352.09;5059750;28;20064;-78
2020/12/09 09:07:28;;;;;;;52.73;21.83;;;;;;;-0.21;91.85;98334.91;5061204;28;20124;-78
2020/12/09 09:09:55;;;;;;;48.97;22.17;;;;;;;-0.11;92.10;98356.31;5059548;28;20485;-78
2020/12/09 09:12:22;;;;;;;59.20;23.43;;;;;;;-0.12;92.02;98348.41;5060228;28;20115;-78
2020/12/09 09:14:48;;;;;;;61.50;23.87;;;;;;;0.01;91.89;98358.88;5059066;28;20075;-78
2020/12/09 09:17:14;;;;;;;67.77;25.63;;;;;;;-0.04;91.64;98351.28;5059714;28;20056;-78
2020/12/09 09:19:40;;;;;;;127.53;43.40;;;;;;;0.05;91.90;98346.94;5059857;28;20053;-78
2020/12/09 09:22:09;;;;;;;51.23;22.50;;;;;;;0.17;91.29;98362.69;5059872;28;20060;-78
2020/12/09 09:24:36;;;;;;;53.17;22.65;;;;;;;0.15;90.53;98356.66;5060330;28;20103;-78
2020/12/09 09:27:03;;;;;;;57.80;22.47;;;;;;;0.11;91.00;98357.06;5059449;28;20060;-78
2020/12/09 09:29:33;;;;;;;51.23;20.40;;;;;;;-0.03;91.47;98348.47;5059648;28;20037;-78
2020/12/09 09:31:59;;;;;;;50.78;20.45;;;;;;;0.06;91.67;98353.94;5059560;28;20052;-78
2020/12/09 09:34:25;;;;;;;50.90;21.00;;;;;;;0.07;91.79;98347.63;5059190;28;20048;-78
2020/12/09 09:36:51;;;;;;;55.63;21.50;;;;;;;0.12;91.37;98350.72;5059530;28;20107;-78
2020/12/09 09:39:18;;;;;;;84.47;28.33;;;;;;;0.05;91.80;98336.25;5059516;28;20041;-78
2020/12/09 09:41:44;;;;;;;59.37;24.13;;;;;;;0.05;91.44;98339.75;5059258;28;20551;-78
2020/12/09 09:44:12;;;;;;;54.23;22.60;;;;;;;0.18;90.94;98350.16;5059771;28;20056;-78
2020/12/09 09:46:39;;;;;;;53.53;22.80;;;;;;;0.12;91.67;98350.72;5059613;28;20065;-78
2020/12/09 09:49:05;;;;;;;56.80;24.90;;;;;;;0.10;92.17;98344.69;5059080;28;20114;-78
2020/12/09 09:51:31;;;;;;;60.70;24.40;;;;;;;0.13;92.00;98339.88;5058808;28;20109;-78
2020/12/09 09:53:57;;;;;;;57.60;24.90;;;;;;;0.17;91.98;98341.31;5059016;28;20098;-78
2020/12/09 09:56:23;;;;;;;60.03;25.63;;;;;;;0.16;91.91;98333.44;5058898;28;20460;-78
2020/12/09 09:58:50;;;;;;;56.90;24.23;;;;;;;0.33;91.46;98348.78;5059306;28;20057;-78
2020/12/09 10:01:17;;;;;;;59.07;24.10;;;;;;;0.26;91.34;98336.97;5058197;28;20040;-78
2020/12/09 10:03:43;;;;;;;57.13;25.03;;;;;;;0.35;91.47;98354.00;5059080;28;20049;-79
2020/12/09 10:06:09;;;;;;;53.40;24.50;;;;;;;0.21;91.39;98328.53;5058463;28;20048;-79
2020/12/09 10:08:36;;;;;;;50.38;23.27;;;;;;;0.37;91.47;98349.34;5058974;28;20067;-78
2020/12/09 10:11:03;;;;;;;52.90;23.60;;;;;;;0.37;91.71;98348.50;5057707;28;20049;-78
2020/12/09 10:13:29;;;;;;;53.67;22.27;;;;;;;0.40;91.75;98356.25;5059151;28;20064;-79
2020/12/09 10:15:56;;;;;;;58.67;23.55;;;;;;;0.41;91.64;98356.09;5058931;28;20049;-79
2020/12/09 10:18:23;;;;;;;57.83;24.58;;;;;;;0.33;91.54;98337.22;5058236;28;20512;-79
2020/12/09 10:20:49;;;;;;;53.30;23.70;;;;;;;0.37;91.59;98344.00;5058762;28;20056;-79
2020/12/09 10:23:16;;;;;;;60.43;25.40;;;;;;;0.24;91.87;98335.41;5058561;28;20098;-80
2020/12/09 10:25:42;;;;;;;61.70;25.03;;;;;;;0.34;91.88;98347.78;5058200;28;20060;-79
2020/12/09 10:28:09;;;;;;;53.07;23.50;;;;;;;0.39;91.87;98352.72;5058495;28;20109;-79
2020/12/09 10:30:35;;;;;;;54.13;24.60;;;;;;;0.26;91.72;98328.09;5059072;28;20048;-80
2020/12/09 10:33:02;;;;;;;64.55;25.55;;;;;;;0.36;91.54;98350.31;5057707;28;20109;-80
2020/12/09 10:35:29;;;;;;;52.00;22.47;;;;;;;0.44;91.86;98365.69;5058605;28;20056;-79
2020/12/09 10:37:55;;;;;;;58.50;23.57;;;;;;;0.34;92.31;98341.59;5056602;28;20052;-79
2020/12/09 10:40:21;;;;;;;63.08;23.60;;;;;;;0.37;91.88;98338.66;5058746;28;20072;-80
2020/12/09 10:42:47;;;;;;;55.13;23.30;;;;;;;0.44;91.75;98339.78;5058567;28;20056;-79
2020/12/09 10:45:14;;;;;;;56.00;24.77;;;;;;;0.34;91.73;98331.75;5057259;28;20103;-79
2020/12/09 10:47:41;;;;;;;57.35;23.02;;;;;;;0.47;91.84;98335.97;5058425;28;20559;-79
2020/12/09 10:50:07;;;;;;;57.15;23.63;;;;;;;0.67;90.79;98342.16;5057725;28;20045;-79
2020/12/09 10:52:34;;;;;;;56.63;23.65;;;;;;;0.56;90.79;98345.84;5059112;28;20071;-79
2020/12/09 10:55:02;;;;;;;52.47;22.88;;;;;;;0.58;91.00;98326.97;5057563;28;20044;-79
2020/12/09 10:57:29;;;;;;;58.05;21.85;;;;;;;0.67;90.87;98331.47;5058328;28;20056;-79
2020/12/09 10:59:55;;;;;;;52.97;23.05;;;;;;;0.67;90.09;98332.28;5057784;28;20102;-79
2020/12/09 11:02:21;;;;;;;78.35;29.05;;;;;;;0.52;90.63;98309.66;5058176;28;20061;-79
2020/12/09 11:04:47;;;;;;;75.72;27.63;;;;;;;0.58;90.41;98329.63;5057891;28;20573;-79
2020/12/09 11:07:14;;;;;;;68.18;27.63;;;;;;;0.64;91.37;98329.06;5057265;28;20427;-79
2020/12/09 11:09:41;;;;;;;58.92;24.83;;;;;;;0.64;91.99;98335.25;5058438;28;20052;-79
2020/12/09 11:12:07;;;;;;;56.47;24.60;;;;;;;0.74;92.17;98337.94;5056860;28;20079;-79
2020/12/09 11:14:34;;;;;;;69.75;28.70;;;;;;;0.65;92.26;98323.56;5058124;28;20117;-79
2020/12/09 11:17:00;;;;;;;61.13;25.45;;;;;;;0.85;91.27;98331.56;5057595;28;20066;-79
2020/12/09 11:19:27;;;;;;;79.05;35.20;;;;;;;0.78;91.58;98325.09;5057747;28;20122;-79
2020/12/09 11:21:53;;;;;;;64.00;27.48;;;;;;;0.65;91.15;98304.84;5056847;28;20064;-79
2020/12/09 11:24:19;;;;;;;85.80;33.63;;;;;;;0.81;91.23;98319.47;5056867;28;20086;-80
2020/12/09 11:26:46;;;;;;;68.43;26.33;;;;;;;0.85;91.29;98327.06;5057443;28;20094;-79
2020/12/09 11:29:13;;;;;;;97.93;37.88;;;;;;;0.84;91.21;98316.50;5058164;28;20157;-79
2020/12/09 11:31:39;;;;;;;57.88;24.30;;;;;;;0.74;91.55;98305.81;5057696;28;20044;-79
2020/12/09 11:34:06;;;;;;;64.47;24.75;;;;;;;0.86;91.45;98311.88;5057154;28;20468;-80
2020/12/09 11:36:32;;;;;;;66.22;27.40;;;;;;;0.70;91.85;98293.72;5056957;28;20056;-80